createdAt,value
2019-05-26T00:01:04.576Z,24.20
2019-05-26T00:03:37.197Z,24.25
2019-05-26T00:06:09.320Z,23.27
2019-05-26T00:08:42.227Z,22.17
2019-05-26T00:11:14.624Z,21.33
2019-05-26T00:13:47.310Z,20.20
2019-05-26T00:16:19.816Z,21.55
2019-05-26T00:18:52.304Z,22.42
2019-05-26T00:21:24.891Z,23.27
2019-05-26T00:23:57.111Z,22.65
2019-05-26T00:26:29.587Z,22.25
2019-05-26T00:29:02.051Z,21.10
2019-05-26T00:31:35.762Z,20.85
2019-05-26T00:34:08.656Z,21.48
2019-05-26T00:36:41.075Z,21.48
2019-05-26T00:39:13.309Z,20.00
2019-05-26T00:41:45.662Z,21.23
2019-05-26T00:44:18.095Z,21.12
2019-05-26T00:46:50.206Z,21.37
2019-05-26T00:49:22.876Z,21.05
2019-05-26T00:51:55.137Z,21.20
2019-05-26T00:54:27.518Z,20.57
2019-05-26T00:56:59.945Z,21.35
2019-05-26T00:59:32.191Z,21.07
2019-05-26T01:02:04.808Z,20.55
2019-05-26T01:04:38.963Z,20.17
2019-05-26T01:07:11.539Z,19.85
2019-05-26T01:09:44.071Z,20.10
2019-05-26T01:12:16.309Z,20.25
2019-05-26T01:14:48.450Z,20.55
2019-05-26T01:17:20.991Z,19.42
2019-05-26T01:19:53.338Z,20.95
2019-05-26T01:22:25.546Z,19.65
2019-05-26T01:24:58.102Z,19.77
2019-05-26T01:27:30.307Z,20.40
2019-05-26T01:30:02.822Z,21.05
2019-05-26T01:32:35.023Z,20.12
2019-05-26T01:35:08.997Z,20.52
2019-05-26T01:37:41.826Z,19.92
2019-05-26T01:40:14.738Z,20.75
2019-05-26T01:42:47.354Z,19.67
2019-05-26T01:45:19.758Z,20.00
2019-05-26T01:47:52.134Z,20.35
2019-05-26T01:50:24.454Z,21.17
2019-05-26T01:52:57.278Z,19.12
2019-05-26T01:55:29.692Z,18.50
2019-05-26T01:58:02.317Z,19.60
2019-05-26T02:00:36.390Z,19.20
2019-05-26T02:03:08.865Z,18.70
2019-05-26T02:05:41.384Z,18.37
2019-05-26T02:08:14.195Z,17.92
2019-05-26T02:10:46.736Z,17.45
2019-05-26T02:13:19.193Z,17.82
2019-05-26T02:15:51.400Z,17.35
2019-05-26T02:18:23.680Z,17.52
2019-05-26T02:20:55.840Z,17.50
2019-05-26T02:23:28.397Z,17.92
2019-05-26T02:26:00.694Z,17.48
2019-05-26T02:28:33.001Z,17.00
2019-05-26T02:31:05.350Z,17.50
2019-05-26T02:33:38.078Z,18.45
2019-05-26T02:36:10.566Z,17.30
2019-05-26T02:39:00.183Z,17.25
2019-05-26T02:41:17.315Z,17.77
2019-05-26T02:43:49.508Z,19.57
2019-05-26T02:46:22.424Z,17.37
2019-05-26T02:48:54.622Z,16.37
2019-05-26T02:51:27.421Z,17.60
2019-05-26T02:53:59.855Z,18.07
2019-05-26T02:56:32.428Z,16.62
2019-05-26T02:59:04.616Z,16.20
2019-05-26T03:01:37.233Z,16.45
2019-05-26T03:04:09.862Z,17.35
2019-05-26T03:06:43.108Z,16.97
2019-05-26T03:09:23.116Z,17.52
2019-05-26T03:11:54.609Z,16.55
2019-05-26T03:14:27.690Z,16.50
2019-05-26T03:17:02.209Z,17.70
2019-05-26T03:19:36.604Z,18.87
2019-05-26T03:22:09.436Z,18.02
2019-05-26T03:24:43.972Z,17.80
2019-05-26T03:27:16.234Z,17.42
2019-05-26T03:29:48.626Z,17.25
2019-05-26T03:32:20.904Z,17.27
2019-05-26T03:34:53.259Z,17.57
2019-05-26T03:37:25.567Z,16.00
2019-05-26T03:39:57.805Z,17.80
2019-05-26T03:42:30.470Z,17.12
2019-05-26T03:45:02.959Z,16.77
2019-05-26T03:47:35.450Z,16.57
2019-05-26T03:50:09.437Z,16.05
2019-05-26T03:52:41.878Z,16.60
2019-05-26T03:55:15.098Z,16.30
2019-05-26T03:57:47.578Z,16.50
2019-05-26T04:00:19.968Z,16.65
2019-05-26T04:02:52.311Z,16.10
2019-05-26T04:05:25.291Z,16.50
2019-05-26T04:07:57.573Z,15.68
2019-05-26T04:10:30.270Z,16.50
2019-05-26T04:13:02.488Z,16.73
2019-05-26T04:15:35.024Z,16.52
2019-05-26T04:18:07.554Z,16.12
2019-05-26T04:20:39.878Z,16.00
2019-05-26T04:23:12.567Z,14.53
2019-05-26T04:25:45.022Z,15.48
2019-05-26T04:28:17.871Z,15.93
2019-05-26T04:30:50.093Z,16.15
2019-05-26T04:33:22.713Z,14.75
2019-05-26T04:35:55.438Z,14.85
2019-05-26T04:38:27.803Z,15.30
2019-05-26T04:41:00.118Z,14.60
2019-05-26T04:43:32.532Z,15.48
2019-05-26T04:46:04.707Z,14.93
2019-05-26T04:48:37.100Z,15.48
2019-05-26T04:51:09.457Z,14.73
2019-05-26T04:53:41.830Z,15.43
2019-05-26T04:56:14.231Z,14.50
2019-05-26T04:58:46.802Z,16.00
2019-05-26T05:01:19.043Z,16.00
2019-05-26T05:03:51.285Z,16.27
2019-05-26T05:06:24.201Z,16.10
2019-05-26T05:08:56.423Z,17.00
2019-05-26T05:11:29.318Z,15.80
2019-05-26T05:14:01.722Z,16.65
2019-05-26T05:16:34.043Z,15.38
2019-05-26T05:19:06.385Z,16.90
2019-05-26T05:21:38.905Z,16.45
2019-05-26T05:24:11.321Z,16.48
2019-05-26T05:26:43.452Z,16.70
2019-05-26T05:29:17.326Z,16.25
2019-05-26T05:31:49.635Z,16.52
2019-05-26T05:34:22.077Z,16.57
2019-05-26T05:36:54.328Z,15.20
2019-05-26T05:39:26.946Z,16.25
2019-05-26T05:41:59.578Z,15.55
2019-05-26T05:44:32.086Z,16.20
2019-05-26T05:47:04.527Z,15.28
2019-05-26T05:49:36.991Z,15.90
2019-05-26T05:52:09.232Z,15.10
2019-05-26T05:54:44.919Z,15.70
2019-05-26T05:57:17.122Z,15.88
2019-05-26T05:59:49.440Z,16.00
2019-05-26T06:02:21.743Z,16.00
2019-05-26T06:04:54.435Z,16.02
2019-05-26T06:07:26.621Z,17.32
2019-05-26T06:09:59.990Z,17.25
2019-05-26T06:12:32.817Z,16.02
2019-05-26T06:15:06.184Z,16.27
2019-05-26T06:17:38.386Z,16.17
2019-05-26T06:20:11.986Z,16.10
2019-05-26T06:22:44.655Z,15.65
2019-05-26T06:25:18.946Z,16.62
2019-05-26T06:27:51.034Z,15.90
2019-05-26T06:30:23.620Z,18.32
2019-05-26T06:32:56.196Z,15.95
2019-05-26T06:35:32.285Z,16.30
2019-05-26T06:38:03.364Z,16.25
2019-05-26T06:40:36.038Z,15.75
2019-05-26T06:43:09.074Z,16.85
2019-05-26T06:45:41.551Z,16.48
2019-05-26T06:48:14.183Z,17.40
2019-05-26T06:50:47.213Z,15.88
2019-05-26T06:53:19.610Z,15.68
2019-05-26T06:55:51.949Z,16.50
2019-05-26T06:58:24.492Z,16.07
2019-05-26T07:00:56.902Z,15.70
2019-05-26T07:03:30.219Z,16.55
2019-05-26T07:06:02.535Z,16.60
2019-05-26T07:08:34.781Z,15.68
2019-05-26T07:11:08.448Z,15.32
2019-05-26T07:13:41.202Z,16.90
2019-05-26T07:16:13.913Z,16.50
2019-05-26T07:18:46.366Z,16.48
2019-05-26T07:21:18.799Z,16.57
2019-05-26T07:23:50.927Z,15.70
2019-05-26T07:26:23.202Z,16.30
2019-05-26T07:28:55.513Z,16.55
2019-05-26T07:31:27.984Z,16.77
2019-05-26T07:34:00.497Z,15.93
2019-05-26T07:36:32.817Z,16.57
2019-05-26T07:39:05.506Z,16.30
2019-05-26T07:41:37.720Z,15.38
2019-05-26T07:44:10.026Z,17.20
2019-05-26T07:46:42.233Z,16.25
2019-05-26T07:49:14.750Z,15.88
2019-05-26T07:51:47.855Z,16.60
2019-05-26T07:54:25.454Z,16.17
2019-05-26T07:56:53.678Z,15.55
2019-05-26T07:59:26.228Z,17.17
2019-05-26T08:01:59.083Z,16.65
2019-05-26T08:04:31.574Z,17.40
2019-05-26T08:07:03.955Z,16.45
2019-05-26T08:09:36.238Z,16.55
2019-05-26T08:12:24.595Z,16.23
2019-05-26T08:14:42.708Z,16.50
2019-05-26T08:17:15.054Z,16.12
2019-05-26T08:19:47.586Z,16.25
2019-05-26T08:22:20.621Z,16.40
2019-05-26T08:24:53.915Z,16.60
2019-05-26T08:27:26.419Z,16.90
2019-05-26T08:29:58.896Z,15.70
2019-05-26T08:32:31.251Z,16.42
2019-05-26T08:35:03.806Z,16.67
2019-05-26T08:37:37.678Z,18.00
2019-05-26T08:40:11.611Z,17.82
2019-05-26T08:42:44.674Z,17.52
2019-05-26T08:45:20.894Z,18.02
2019-05-26T08:47:50.993Z,18.42
2019-05-26T08:50:24.605Z,17.00
2019-05-26T08:52:57.117Z,18.65
2019-05-26T08:55:29.858Z,17.73
2019-05-26T08:58:02.520Z,18.20
2019-05-26T09:00:36.212Z,17.50
2019-05-26T09:03:08.616Z,17.40
2019-05-26T09:05:41.134Z,17.48
2019-05-26T09:08:13.537Z,17.48
2019-05-26T09:10:46.093Z,18.05
2019-05-26T09:13:18.383Z,18.32
2019-05-26T09:15:50.797Z,17.40
2019-05-26T09:18:23.536Z,18.52
2019-05-26T09:20:55.798Z,18.82
2019-05-26T09:23:28.172Z,18.98
2019-05-26T09:26:00.395Z,16.48
2019-05-26T09:28:32.651Z,17.65
2019-05-26T09:31:05.055Z,17.40
2019-05-26T09:33:38.010Z,17.52
2019-05-26T09:36:10.701Z,16.95
2019-05-26T09:38:43.148Z,17.32
2019-05-26T09:41:15.664Z,17.55
2019-05-26T09:43:49.645Z,17.35
2019-05-26T09:46:22.162Z,17.92
2019-05-26T09:48:55.686Z,20.20
2019-05-26T09:51:28.514Z,21.95
2019-05-26T09:54:02.219Z,19.55
2019-05-26T09:56:34.893Z,19.57
2019-05-26T09:59:07.315Z,19.17
2019-05-26T10:01:39.708Z,18.62
2019-05-26T10:04:11.909Z,19.00
2019-05-26T10:06:44.896Z,17.82
2019-05-26T10:09:17.372Z,18.57
2019-05-26T10:11:50.236Z,18.80
2019-05-26T10:14:22.651Z,21.93
2019-05-26T10:16:54.782Z,20.60
2019-05-26T10:19:27.123Z,19.52
2019-05-26T10:21:59.807Z,18.92
2019-05-26T10:24:32.116Z,19.05
2019-05-26T10:27:04.477Z,19.35
2019-05-26T10:29:36.796Z,18.98
2019-05-26T10:32:09.218Z,20.50
2019-05-26T10:34:41.392Z,21.73
2019-05-26T10:37:14.057Z,21.62
2019-05-26T10:39:46.257Z,23.50
2019-05-26T10:42:20.061Z,20.92
2019-05-26T10:44:52.986Z,20.55
2019-05-26T10:47:25.662Z,21.52
2019-05-26T10:49:58.090Z,22.05
2019-05-26T10:52:30.482Z,22.98
2019-05-26T10:55:02.884Z,23.35
2019-05-26T10:57:35.281Z,22.10
2019-05-26T11:00:09.685Z,22.65
2019-05-26T11:02:42.851Z,22.20
2019-05-26T11:05:15.988Z,22.87
2019-05-26T11:07:48.217Z,23.40
2019-05-26T11:10:21.189Z,22.95
2019-05-26T11:12:53.884Z,21.48
2019-05-26T11:15:26.505Z,21.73
2019-05-26T11:17:58.710Z,20.85
2019-05-26T11:20:31.189Z,21.65
2019-05-26T11:23:03.657Z,21.55
2019-05-26T11:25:36.524Z,21.70
2019-05-26T11:28:09.277Z,22.80
2019-05-26T11:30:41.836Z,24.37
2019-05-26T11:33:14.718Z,25.90
2019-05-26T11:35:47.305Z,25.52
2019-05-26T11:38:19.592Z,26.48
2019-05-26T11:40:52.270Z,24.57
2019-05-26T11:43:24.468Z,21.40
2019-05-26T11:45:57.043Z,20.05
2019-05-26T11:48:29.630Z,19.70
2019-05-26T11:51:02.723Z,20.75
2019-05-26T11:53:35.066Z,21.05
2019-05-26T11:56:07.374Z,20.30
2019-05-26T11:58:39.791Z,20.80
2019-05-26T12:01:12.421Z,20.68
2019-05-26T12:03:44.855Z,21.70
2019-05-26T12:06:17.377Z,22.30
2019-05-26T12:08:50.033Z,22.32
2019-05-26T12:11:22.944Z,23.12
2019-05-26T12:13:55.507Z,23.02
2019-05-26T12:16:28.941Z,22.32
2019-05-26T12:19:01.389Z,21.68
2019-05-26T12:21:33.821Z,23.30
2019-05-26T12:24:06.028Z,22.50
2019-05-26T12:26:38.652Z,22.62
2019-05-26T12:29:10.868Z,21.77
2019-05-26T12:31:43.420Z,21.10
2019-05-26T12:34:15.713Z,19.98
2019-05-26T12:36:48.372Z,20.25
2019-05-26T12:39:20.609Z,21.85
2019-05-26T12:41:53.268Z,20.85
2019-05-26T12:44:25.576Z,20.10
2019-05-26T12:46:58.144Z,21.75
2019-05-26T12:49:30.444Z,22.40
2019-05-26T12:52:03.151Z,21.50
2019-05-26T12:54:35.584Z,22.15
2019-05-26T12:57:08.228Z,22.20
2019-05-26T12:59:40.612Z,22.98
2019-05-26T13:02:13.276Z,22.60
2019-05-26T13:04:45.389Z,22.95
2019-05-26T13:07:17.900Z,23.42
2019-05-26T13:09:50.421Z,23.55
2019-05-26T13:12:22.847Z,23.52
2019-05-26T13:15:05.531Z,24.05
2019-05-26T13:17:28.709Z,25.68
2019-05-26T13:20:01.833Z,24.35
2019-05-26T13:22:34.098Z,25.30
2019-05-26T13:25:08.774Z,23.80
2019-05-26T13:27:41.640Z,24.95
2019-05-26T13:30:17.147Z,24.95
2019-05-26T13:32:50.254Z,25.52
2019-05-26T13:35:22.863Z,26.73
2019-05-26T13:37:55.108Z,23.67
2019-05-26T13:40:29.554Z,23.20
2019-05-26T13:43:01.255Z,24.67
2019-05-26T13:45:34.185Z,24.52
2019-05-26T13:48:06.819Z,24.00
2019-05-26T13:50:39.650Z,24.02
2019-05-26T13:53:11.849Z,24.80
2019-05-26T13:55:44.300Z,26.12
2019-05-26T13:58:16.484Z,26.35
2019-05-26T14:00:49.138Z,24.43
2019-05-26T14:03:24.111Z,27.30
2019-05-26T14:05:55.107Z,25.60
2019-05-26T14:08:27.398Z,24.52
2019-05-26T14:11:00.247Z,25.02
2019-05-26T14:13:32.555Z,25.17
2019-05-26T14:16:06.286Z,25.10
2019-05-26T14:18:39.227Z,23.73
2019-05-26T14:21:11.753Z,24.23
2019-05-26T14:23:43.955Z,24.40
2019-05-26T14:26:16.297Z,24.85
2019-05-26T14:28:48.427Z,23.92
2019-05-26T14:31:20.893Z,23.52
2019-05-26T14:33:55.513Z,22.22
2019-05-26T14:36:27.844Z,23.30
2019-05-26T14:39:00.238Z,23.40
2019-05-26T14:41:34.295Z,23.02
2019-05-26T14:44:07.117Z,21.73
2019-05-26T14:46:40.253Z,21.33
2019-05-26T14:49:13.191Z,22.82
2019-05-26T14:51:45.666Z,21.52
2019-05-26T14:54:17.962Z,22.30
2019-05-26T14:56:50.446Z,21.37
2019-05-26T14:59:22.911Z,22.87
2019-05-26T15:01:55.488Z,21.85
2019-05-26T15:04:30.955Z,21.57
2019-05-26T15:07:01.821Z,21.40
2019-05-26T15:09:35.140Z,21.82
2019-05-26T15:12:07.545Z,21.57
2019-05-26T15:14:39.957Z,22.42
2019-05-26T15:17:12.290Z,21.95
2019-05-26T15:19:44.670Z,21.27
2019-05-26T15:22:17.223Z,21.40
2019-05-26T15:24:49.701Z,21.65
2019-05-26T15:27:22.051Z,22.13
2019-05-26T15:29:54.770Z,21.93
2019-05-26T15:32:27.083Z,21.95
2019-05-26T15:35:00.191Z,21.48
2019-05-26T15:37:32.812Z,21.93
2019-05-26T15:40:07.294Z,21.75
2019-05-26T15:42:39.601Z,21.23
2019-05-26T15:45:13.713Z,21.17
2019-05-26T15:47:46.975Z,20.52
2019-05-26T15:50:19.607Z,20.77
2019-05-26T15:52:52.381Z,20.23
2019-05-26T15:55:24.763Z,22.27
2019-05-26T15:57:57.077Z,25.45
2019-05-26T16:00:29.646Z,24.47
2019-05-26T16:03:01.974Z,25.10
2019-05-26T16:05:34.254Z,21.25
2019-05-26T16:08:06.545Z,20.95
2019-05-26T16:10:39.177Z,20.95
2019-05-26T16:13:11.454Z,21.65
2019-05-26T16:15:43.952Z,21.27
2019-05-26T16:18:17.331Z,21.27
2019-05-26T16:20:58.987Z,21.82
2019-05-26T16:23:23.470Z,20.77
2019-05-26T16:25:55.865Z,20.88
2019-05-26T16:28:28.399Z,21.68
2019-05-26T16:31:00.755Z,20.75
2019-05-26T16:33:33.778Z,21.20
2019-05-26T16:36:06.679Z,21.60
2019-05-26T16:38:39.382Z,21.93
2019-05-26T16:41:12.227Z,21.35
2019-05-26T16:43:44.454Z,21.35
2019-05-26T16:46:17.227Z,21.17
2019-05-26T16:48:49.376Z,20.60
2019-05-26T16:51:21.511Z,22.40
2019-05-26T16:53:54.089Z,22.42
2019-05-26T16:56:26.412Z,23.45
2019-05-26T16:58:58.779Z,22.60
2019-05-26T17:01:30.978Z,21.90
2019-05-26T17:04:03.332Z,22.87
2019-05-26T17:06:35.770Z,23.15
2019-05-26T17:09:10.667Z,23.55
2019-05-26T17:11:43.088Z,23.02
2019-05-26T17:14:16.377Z,22.67
2019-05-26T17:16:49.567Z,23.10
2019-05-26T17:19:22.019Z,23.02
2019-05-26T17:21:54.549Z,21.82
2019-05-26T17:24:27.201Z,21.65
2019-05-26T17:26:59.595Z,21.80
2019-05-26T17:29:32.206Z,20.75
2019-05-26T17:32:04.704Z,21.35
2019-05-26T17:34:37.342Z,23.55
2019-05-26T17:37:09.760Z,23.40
2019-05-26T17:39:42.008Z,24.20
2019-05-26T17:42:14.521Z,22.98
2019-05-26T17:44:46.722Z,23.25
2019-05-26T17:47:29.914Z,21.75
2019-05-26T17:49:52.881Z,21.93
2019-05-26T17:52:25.176Z,21.60
2019-05-26T17:54:57.569Z,22.17
2019-05-26T17:57:29.661Z,21.80
2019-05-26T18:00:03.296Z,20.82
2019-05-26T18:02:35.782Z,22.32
2019-05-26T18:05:08.714Z,21.97
2019-05-26T18:07:41.308Z,22.07
2019-05-26T18:10:14.398Z,21.37
2019-05-26T18:12:46.512Z,22.30
2019-05-26T18:15:19.143Z,22.40
2019-05-26T18:17:51.756Z,22.37
2019-05-26T18:20:24.163Z,21.20
2019-05-26T18:22:56.510Z,21.05
2019-05-26T18:25:28.819Z,22.42
2019-05-26T18:28:01.196Z,21.33
2019-05-26T18:30:33.997Z,22.17
2019-05-26T18:33:06.311Z,21.17
2019-05-26T18:35:38.620Z,20.62
2019-05-26T18:38:10.913Z,21.23
2019-05-26T18:40:43.815Z,21.20
2019-05-26T18:43:16.049Z,22.48
2019-05-26T18:45:48.643Z,21.37
2019-05-26T18:48:21.070Z,21.42
2019-05-26T18:50:53.918Z,22.87
2019-05-26T18:53:29.478Z,21.35
2019-05-26T18:56:00.112Z,21.02
2019-05-26T18:58:32.534Z,21.82
2019-05-26T19:01:05.112Z,21.45
2019-05-26T19:03:37.555Z,21.57
2019-05-26T19:06:09.882Z,20.97
2019-05-26T19:08:42.274Z,22.17
2019-05-26T19:11:14.656Z,21.70
2019-05-26T19:13:47.044Z,21.75
2019-05-26T19:16:19.406Z,21.42
2019-05-26T19:18:51.651Z,22.02
2019-05-26T19:21:24.094Z,22.50
2019-05-26T19:23:56.506Z,22.50
2019-05-26T19:26:28.707Z,21.52
2019-05-26T19:29:01.246Z,21.42
2019-05-26T19:31:33.523Z,21.25
2019-05-26T19:34:06.457Z,21.30
2019-05-26T19:36:39.048Z,21.33
2019-05-26T19:39:12.636Z,22.50
2019-05-26T19:41:45.228Z,23.20
2019-05-26T19:44:18.349Z,22.82
2019-05-26T19:46:52.824Z,21.90
2019-05-26T19:49:24.189Z,21.40
2019-05-26T19:51:56.615Z,21.15
2019-05-26T19:54:28.912Z,21.50
2019-05-26T19:57:01.818Z,22.65
2019-05-26T19:59:34.577Z,22.42
2019-05-26T20:02:17.762Z,22.15
2019-05-26T20:04:41.256Z,21.90
2019-05-26T20:07:13.903Z,23.05
2019-05-26T20:09:46.150Z,22.15
2019-05-26T20:12:18.857Z,22.58
2019-05-26T20:14:51.424Z,23.15
2019-05-26T20:17:23.736Z,23.38
2019-05-26T20:19:56.614Z,23.40
2019-05-26T20:22:28.858Z,22.67
2019-05-26T20:25:01.273Z,23.20
2019-05-26T20:27:33.447Z,22.15
2019-05-26T20:30:07.116Z,22.67
2019-05-26T20:32:39.785Z,23.38
2019-05-26T20:35:12.683Z,24.60
2019-05-26T20:37:45.197Z,23.60
2019-05-26T20:40:18.018Z,23.83
2019-05-26T20:42:50.653Z,24.02
2019-05-26T20:45:23.036Z,24.82
2019-05-26T20:47:55.559Z,25.17
2019-05-26T20:50:29.909Z,25.75
2019-05-26T20:53:02.632Z,25.17
2019-05-26T20:55:35.343Z,25.37
2019-05-26T20:58:07.718Z,25.15
2019-05-26T21:00:40.348Z,25.57
2019-05-26T21:03:12.858Z,26.00
2019-05-26T21:05:45.332Z,25.97
2019-05-26T21:08:17.953Z,26.27
2019-05-26T21:10:50.295Z,27.93
2019-05-26T21:13:22.701Z,26.62
2019-05-26T21:15:55.155Z,27.67
2019-05-26T21:18:27.747Z,26.77
2019-05-26T21:21:00.138Z,25.40
2019-05-26T21:23:32.493Z,26.73
2019-05-26T21:26:04.706Z,25.50
2019-05-26T21:28:37.002Z,26.93
2019-05-26T21:31:09.207Z,27.93
2019-05-26T21:33:41.635Z,27.22
2019-05-26T21:36:13.921Z,26.15
2019-05-26T21:38:46.064Z,27.00
2019-05-26T21:41:18.263Z,27.98
2019-05-26T21:43:50.723Z,27.17
2019-05-26T21:46:23.073Z,28.67
2019-05-26T21:48:55.593Z,28.32
2019-05-26T21:51:28.111Z,28.42
2019-05-26T21:54:00.533Z,28.75
2019-05-26T21:56:32.802Z,29.65
2019-05-26T21:59:05.316Z,29.05
2019-05-26T22:01:37.605Z,28.98
2019-05-26T22:04:10.245Z,28.00
2019-05-26T22:06:42.543Z,29.92
2019-05-26T22:09:15.019Z,29.30
2019-05-26T22:11:47.109Z,28.45
2019-05-26T22:14:19.819Z,28.47
2019-05-26T22:16:51.924Z,27.48
2019-05-26T22:19:24.475Z,28.90
2019-05-26T22:21:57.097Z,28.32
2019-05-26T22:24:29.710Z,29.70
2019-05-26T22:27:02.095Z,29.52
2019-05-26T22:29:34.438Z,30.50
2019-05-26T22:32:07.441Z,28.73
2019-05-26T22:34:39.643Z,30.15
2019-05-26T22:37:12.081Z,29.45
2019-05-26T22:39:44.873Z,30.65
2019-05-26T22:42:17.191Z,29.77
2019-05-26T22:44:49.397Z,30.32
2019-05-26T22:47:21.677Z,30.05
2019-05-26T22:49:53.886Z,29.48
2019-05-26T22:52:26.098Z,30.30
2019-05-26T22:54:58.721Z,30.52
2019-05-26T22:57:30.982Z,30.75
2019-05-26T23:00:03.567Z,28.80
2019-05-26T23:02:36.073Z,29.82
2019-05-26T23:05:09.635Z,29.92
2019-05-26T23:07:42.598Z,28.42
2019-05-26T23:10:15.413Z,29.12
2019-05-26T23:12:47.708Z,28.77
2019-05-26T23:15:20.469Z,29.23
2019-05-26T23:17:53.410Z,28.92
2019-05-26T23:20:25.954Z,28.00
2019-05-26T23:22:58.899Z,28.80
2019-05-26T23:25:31.044Z,27.37
2019-05-26T23:28:03.898Z,29.45
2019-05-26T23:30:36.594Z,28.25
2019-05-26T23:33:08.880Z,27.22
2019-05-26T23:35:41.167Z,27.40
2019-05-26T23:38:13.706Z,26.73
2019-05-26T23:40:45.930Z,27.55
2019-05-26T23:43:18.235Z,26.73
2019-05-26T23:45:50.335Z,27.17
2019-05-26T23:48:22.712Z,26.73
2019-05-26T23:50:55.022Z,26.73
2019-05-26T23:53:27.644Z,26.35
2019-05-26T23:55:59.946Z,26.82
2019-05-26T23:58:32.531Z,27.22
